Mesa, Washington
Current Conditions -  °F | °C
As of 2:53 AM on Thursday 18 Dec 2014 (Local Time) from KPSC Reporting Station
Scattered Clouds Scattered Clouds  
Wind Chill: 33°   Ceiling: Unl
Heat Index: 37°   Visibility: 7mi
Dew Point: 37°   Wind: 5mph
Humidity: 100%   Direction: 100°E
Pressure: 30.03"   Gusts: NA
Location:  46.58°N, 119.01°W
Report Text: KPSC 181053Z AUTO 10004KT 7SM FEW075 FEW090 SCT110 03/03 A3003 RMK AO2 SLP172 T00280028
Loading
Personal Weather Stations






























Interactive Weather Map New forecast layout! Learn more

10-Day Weather Forecast

Advertisements
Track Severe Weather on mobile